createdAt,value
2018-12-21T00:00:53.889Z,7.36
2018-12-21T00:03:26.225Z,7.43
2018-12-21T00:05:58.461Z,7.34
2018-12-21T00:08:30.712Z,7.28
2018-12-21T00:11:02.959Z,7.21
2018-12-21T00:13:35.208Z,7.19
2018-12-21T00:16:07.427Z,7.19
2018-12-21T00:18:39.726Z,7.18
2018-12-21T00:21:11.956Z,7.18
2018-12-21T00:23:44.262Z,7.11
2018-12-21T00:26:16.500Z,7.15
2018-12-21T00:28:48.737Z,7.08
2018-12-21T00:31:26.649Z,7.06
2018-12-21T00:34:04.651Z,7.02
2018-12-21T00:36:42.564Z,6.97
2018-12-21T00:39:20.629Z,6.92
2018-12-21T00:41:52.325Z,6.90
2018-12-21T00:44:32.935Z,6.85
2018-12-21T00:47:11.804Z,6.87
2018-12-21T00:49:44.077Z,7.04
2018-12-21T00:52:16.431Z,6.94
2018-12-21T00:54:48.640Z,6.87
2018-12-21T00:57:20.884Z,6.83
2018-12-21T00:59:53.127Z,6.85
2018-12-21T01:02:25.380Z,6.77
2018-12-21T01:04:57.629Z,6.69
2018-12-21T01:07:29.859Z,6.64
2018-12-21T01:10:02.128Z,6.63
2018-12-21T01:12:34.416Z,6.63
2018-12-21T01:15:06.767Z,6.60
2018-12-21T01:17:39.036Z,6.57
2018-12-21T01:20:11.272Z,6.59
2018-12-21T01:22:43.655Z,6.56
2018-12-21T01:25:15.906Z,6.55
2018-12-21T01:27:48.140Z,6.57
2018-12-21T01:30:20.409Z,6.59
2018-12-21T01:32:52.741Z,6.55
2018-12-21T01:35:25.129Z,6.47
2018-12-21T01:37:57.367Z,6.50
2018-12-21T01:40:29.786Z,6.50
2018-12-21T01:43:01.995Z,6.46
2018-12-21T01:45:34.276Z,6.45
2018-12-21T01:48:06.508Z,6.43
2018-12-21T01:50:38.789Z,6.42
2018-12-21T01:53:11.024Z,6.35
2018-12-21T01:55:43.255Z,6.28
2018-12-21T01:58:15.507Z,6.24
2018-12-21T02:00:47.732Z,6.21
2018-12-21T02:03:19.973Z,6.21
2018-12-21T02:05:52.195Z,6.35
2018-12-21T02:08:24.439Z,6.24
2018-12-21T02:10:56.668Z,6.20
2018-12-21T02:13:28.917Z,6.23
2018-12-21T02:16:01.147Z,6.24
2018-12-21T02:18:33.393Z,6.27
2018-12-21T02:21:05.627Z,6.43
2018-12-21T02:23:37.857Z,6.40
2018-12-21T02:26:10.162Z,6.43
2018-12-21T02:28:42.393Z,6.45
2018-12-21T02:31:14.615Z,6.44
2018-12-21T02:33:46.837Z,6.44
2018-12-21T02:36:19.117Z,6.41
2018-12-21T02:38:51.445Z,6.41
2018-12-21T02:41:23.648Z,6.41
2018-12-21T02:43:56.021Z,6.37
2018-12-21T02:46:28.376Z,6.28
2018-12-21T02:49:00.638Z,6.27
2018-12-21T02:51:32.860Z,6.24
2018-12-21T02:54:05.097Z,6.23
2018-12-21T02:56:37.329Z,6.22
2018-12-21T02:59:09.591Z,6.17
2018-12-21T03:01:41.826Z,6.06
2018-12-21T03:04:14.083Z,6.04
2018-12-21T03:06:46.368Z,5.96
2018-12-21T03:09:18.742Z,5.94
2018-12-21T03:11:50.985Z,5.95
2018-12-21T03:14:23.410Z,5.95
2018-12-21T03:16:55.633Z,5.97
2018-12-21T03:19:27.904Z,6.01
2018-12-21T03:22:00.128Z,5.97
2018-12-21T03:24:32.340Z,5.97
2018-12-21T03:27:04.594Z,6.00
2018-12-21T03:29:36.941Z,6.01
2018-12-21T03:32:09.153Z,6.01
2018-12-21T03:34:41.385Z,6.00
2018-12-21T03:37:13.756Z,5.98
2018-12-21T03:39:45.997Z,5.94
2018-12-21T03:42:18.219Z,5.94
2018-12-21T03:44:50.491Z,5.94
2018-12-21T03:47:22.731Z,5.93
2018-12-21T03:49:54.968Z,5.95
2018-12-21T03:52:27.169Z,5.96
2018-12-21T03:54:59.379Z,5.98
2018-12-21T03:57:31.630Z,5.97
2018-12-21T04:00:04.524Z,5.96
2018-12-21T04:02:36.767Z,5.96
2018-12-21T04:05:09.076Z,5.95
2018-12-21T04:07:41.408Z,5.90
2018-12-21T04:10:13.624Z,5.88
2018-12-21T04:12:45.864Z,5.90
2018-12-21T04:15:18.196Z,5.92
2018-12-21T04:17:50.417Z,5.94
2018-12-21T04:20:22.661Z,5.93
2018-12-21T04:22:56.448Z,6.01
2018-12-21T04:25:28.676Z,6.09
2018-12-21T04:28:00.899Z,6.14
2018-12-21T04:30:33.244Z,6.12
2018-12-21T04:33:05.497Z,6.07
2018-12-21T04:35:37.729Z,6.01
2018-12-21T04:38:10.017Z,6.01
2018-12-21T04:40:42.338Z,5.99
2018-12-21T04:43:14.550Z,6.00
2018-12-21T04:45:46.797Z,6.10
2018-12-21T04:48:19.059Z,6.12
2018-12-21T04:50:51.292Z,6.12
2018-12-21T04:53:23.548Z,6.19
2018-12-21T04:55:55.827Z,6.23
2018-12-21T04:58:28.082Z,6.25
2018-12-21T05:01:00.427Z,6.25
2018-12-21T05:03:32.784Z,6.21
2018-12-21T05:06:05.001Z,6.17
2018-12-21T05:08:37.235Z,6.16
2018-12-21T05:11:09.496Z,6.19
2018-12-21T05:13:41.744Z,6.00
2018-12-21T05:16:13.980Z,6.00
2018-12-21T05:18:46.216Z,5.98
2018-12-21T05:21:18.460Z,6.07
2018-12-21T05:23:50.700Z,6.01
2018-12-21T05:26:22.908Z,5.93
2018-12-21T05:28:55.136Z,5.87
2018-12-21T05:31:28.504Z,5.84
2018-12-21T05:34:01.141Z,5.81
2018-12-21T05:36:33.357Z,5.84
2018-12-21T05:39:05.914Z,5.84
2018-12-21T05:41:38.175Z,5.80
2018-12-21T05:46:49.414Z,5.95
2018-12-21T05:49:21.670Z,5.99
2018-12-21T05:51:53.923Z,6.05
2018-12-21T05:54:26.124Z,5.94
2018-12-21T05:56:58.395Z,5.94
2018-12-21T05:59:30.624Z,5.97
2018-12-21T06:02:02.855Z,5.93
2018-12-21T06:04:35.067Z,5.97
2018-12-21T06:07:07.300Z,5.99
2018-12-21T06:09:39.515Z,6.07
2018-12-21T06:12:11.831Z,6.06
2018-12-21T06:14:44.048Z,6.06
2018-12-21T06:17:16.298Z,6.15
2018-12-21T06:19:48.508Z,6.25
2018-12-21T06:22:20.767Z,6.24
2018-12-21T06:24:52.977Z,6.27
2018-12-21T06:27:25.237Z,6.28
2018-12-21T06:29:57.548Z,6.35
2018-12-21T06:32:29.800Z,6.42
2018-12-21T06:35:02.044Z,6.38
2018-12-21T06:37:34.848Z,6.36
2018-12-21T06:40:07.090Z,6.39
2018-12-21T06:42:39.363Z,6.40
2018-12-21T06:45:11.695Z,6.30
2018-12-21T06:47:44.012Z,6.17
2018-12-21T06:50:18.217Z,6.13
2018-12-21T06:52:50.602Z,6.16
2018-12-21T06:55:22.830Z,6.12
2018-12-21T06:57:55.076Z,6.09
2018-12-21T07:00:27.299Z,6.10
2018-12-21T07:03:00.118Z,6.05
2018-12-21T07:05:32.315Z,6.05
2018-12-21T07:08:04.637Z,6.10
2018-12-21T07:10:36.904Z,6.14
2018-12-21T07:13:09.200Z,6.16
2018-12-21T07:15:41.457Z,6.17
2018-12-21T07:18:13.725Z,6.17
2018-12-21T07:20:46.003Z,6.18
2018-12-21T07:23:26.837Z,6.19
2018-12-21T07:25:52.537Z,6.20
2018-12-21T07:28:24.849Z,6.20
2018-12-21T07:30:57.109Z,6.21
2018-12-21T07:33:29.355Z,6.18
2018-12-21T07:36:08.370Z,6.18
2018-12-21T07:38:35.837Z,6.17
2018-12-21T07:41:08.104Z,6.19
2018-12-21T07:43:40.418Z,6.18
2018-12-21T07:46:12.708Z,6.20
2018-12-21T07:48:45.033Z,6.28
2018-12-21T07:51:17.255Z,6.40
2018-12-21T07:53:49.512Z,6.37
2018-12-21T07:56:21.783Z,6.38
2018-12-21T07:58:57.359Z,6.44
2018-12-21T08:01:28.317Z,6.53
2018-12-21T08:04:00.845Z,6.47
2018-12-21T08:06:33.271Z,6.60
2018-12-21T08:09:06.478Z,6.58
2018-12-21T08:11:38.781Z,6.57
2018-12-21T08:14:11.029Z,6.56
2018-12-21T08:16:43.295Z,6.56
2018-12-21T08:19:15.632Z,6.54
2018-12-21T08:21:47.945Z,6.50
2018-12-21T08:24:20.253Z,6.54
2018-12-21T08:26:52.496Z,6.52
2018-12-21T08:29:24.818Z,6.51
2018-12-21T08:31:57.389Z,6.56
2018-12-21T08:34:29.639Z,6.62
2018-12-21T08:37:02.064Z,6.56
2018-12-21T08:39:34.450Z,6.64
2018-12-21T08:42:06.756Z,6.62
2018-12-21T08:44:38.995Z,6.63
2018-12-21T08:47:11.394Z,6.69
2018-12-21T08:49:43.648Z,6.70
2018-12-21T08:52:15.947Z,6.75
2018-12-21T08:54:48.208Z,6.77
2018-12-21T08:57:20.437Z,6.81
2018-12-21T08:59:52.800Z,6.77
2018-12-21T09:02:25.067Z,6.71
2018-12-21T09:04:57.417Z,6.74
2018-12-21T09:07:29.691Z,6.84
2018-12-21T09:10:02.030Z,6.84
2018-12-21T09:12:34.309Z,6.82
2018-12-21T09:15:10.012Z,6.88
2018-12-21T09:17:42.285Z,7.02
2018-12-21T09:20:14.541Z,7.03
2018-12-21T09:22:46.891Z,7.05
2018-12-21T09:25:19.149Z,6.99
2018-12-21T09:27:51.449Z,7.00
2018-12-21T09:30:23.741Z,7.09
2018-12-21T09:32:56.060Z,7.22
2018-12-21T09:35:28.295Z,7.07
2018-12-21T09:38:04.591Z,7.14
2018-12-21T09:40:36.827Z,7.22
2018-12-21T09:43:09.114Z,7.23
2018-12-21T09:45:41.401Z,7.18
2018-12-21T09:48:13.661Z,7.19
2018-12-21T09:50:46.012Z,7.15
2018-12-21T09:53:18.291Z,7.13
2018-12-21T09:55:50.682Z,7.13
2018-12-21T09:58:23.012Z,7.41
2018-12-21T10:00:55.286Z,7.44
2018-12-21T10:03:27.577Z,7.29
2018-12-21T10:05:59.839Z,7.28
2018-12-21T10:08:32.132Z,7.23
2018-12-21T10:11:04.447Z,7.30
2018-12-21T10:13:36.680Z,7.27
2018-12-21T10:16:08.992Z,7.35
2018-12-21T10:18:41.295Z,7.41
2018-12-21T10:21:13.607Z,7.43
2018-12-21T10:23:45.872Z,7.55
2018-12-21T10:26:18.177Z,7.61
2018-12-21T10:28:50.482Z,7.64
2018-12-21T10:31:22.901Z,7.71
2018-12-21T10:33:55.176Z,7.66
2018-12-21T10:36:27.429Z,7.69
2018-12-21T10:38:59.663Z,7.68
2018-12-21T10:41:31.953Z,7.73
2018-12-21T10:44:04.202Z,7.81
2018-12-21T10:46:36.538Z,7.87
2018-12-21T10:49:08.794Z,7.90
2018-12-21T10:51:41.120Z,7.85
2018-12-21T10:54:13.401Z,7.81
2018-12-21T10:56:45.720Z,7.78
2018-12-21T10:59:21.158Z,7.80
2018-12-21T11:01:52.368Z,7.95
2018-12-21T11:04:24.640Z,7.87
2018-12-21T11:06:56.963Z,7.92
2018-12-21T11:09:29.180Z,7.89
2018-12-21T11:12:01.472Z,7.97
2018-12-21T11:14:33.768Z,8.06
2018-12-21T11:17:06.057Z,8.04
2018-12-21T11:19:38.394Z,7.94
2018-12-21T11:22:10.674Z,7.91
2018-12-21T11:24:42.949Z,7.86
2018-12-21T11:27:15.233Z,7.83
2018-12-21T11:29:49.519Z,7.84
2018-12-21T11:32:21.835Z,7.83
2018-12-21T11:34:54.967Z,7.87
2018-12-21T11:37:27.371Z,7.82
2018-12-21T11:39:59.675Z,7.81
2018-12-21T11:42:31.916Z,7.82
2018-12-21T11:45:06.142Z,7.82
2018-12-21T11:47:38.425Z,7.86
2018-12-21T11:50:11.459Z,7.87
2018-12-21T11:52:43.706Z,8.02
2018-12-21T11:55:16.017Z,8.12
2018-12-21T11:57:48.288Z,8.10
2018-12-21T12:00:20.682Z,8.29
2018-12-21T12:02:52.935Z,8.30
2018-12-21T12:05:25.202Z,8.38
2018-12-21T12:07:57.463Z,8.55
2018-12-21T12:10:29.784Z,8.61
2018-12-21T12:13:02.032Z,8.79
2018-12-21T12:15:34.375Z,8.90
2018-12-21T12:18:06.637Z,9.02
2018-12-21T12:20:38.922Z,9.01
2018-12-21T12:23:11.197Z,8.97
2018-12-21T12:25:43.517Z,9.09
2018-12-21T12:28:15.740Z,9.18
2018-12-21T12:30:48.032Z,9.13
2018-12-21T12:33:20.406Z,9.19
2018-12-21T12:35:52.700Z,9.44
2018-12-21T12:38:24.959Z,9.51
2018-12-21T12:40:57.256Z,9.51
2018-12-21T12:43:29.521Z,9.62
2018-12-21T12:46:01.842Z,9.66
2018-12-21T12:48:34.237Z,9.69
2018-12-21T12:51:06.512Z,9.76
2018-12-21T12:53:38.818Z,9.91
2018-12-21T12:56:11.112Z,9.88
2018-12-21T12:58:43.366Z,9.95
2018-12-21T13:01:15.913Z,9.97
2018-12-21T13:03:48.221Z,9.92
2018-12-21T13:06:20.535Z,10.06
2018-12-21T13:08:52.862Z,10.02
2018-12-21T13:11:25.174Z,10.02
2018-12-21T13:13:57.837Z,10.04
2018-12-21T13:16:31.005Z,10.08
2018-12-21T13:19:03.416Z,10.03
2018-12-21T13:21:35.797Z,10.16
2018-12-21T13:24:08.217Z,10.15
2018-12-21T13:26:40.573Z,10.17
2018-12-21T13:29:12.886Z,10.14
2018-12-21T13:31:45.284Z,9.99
2018-12-21T13:34:17.665Z,10.15
2018-12-21T13:36:50.161Z,10.12
2018-12-21T13:39:22.490Z,10.19
2018-12-21T13:41:54.820Z,10.14
2018-12-21T13:44:27.101Z,10.14
2018-12-21T13:46:59.497Z,10.28
2018-12-21T13:49:31.720Z,10.18
2018-12-21T13:52:04.040Z,10.22
2018-12-21T13:54:36.338Z,10.32
2018-12-21T13:57:08.623Z,10.34
2018-12-21T13:59:40.957Z,10.29
2018-12-21T14:02:13.248Z,10.33
2018-12-21T14:04:45.512Z,10.32
2018-12-21T14:07:18.008Z,10.23
2018-12-21T14:09:50.316Z,10.32
2018-12-21T14:12:22.576Z,10.40
2018-12-21T14:14:54.940Z,10.41
2018-12-21T14:17:27.255Z,10.40
2018-12-21T14:19:59.543Z,10.41
2018-12-21T14:22:31.859Z,10.40
2018-12-21T14:25:05.032Z,10.40
2018-12-21T14:27:37.331Z,10.47
2018-12-21T14:30:10.185Z,10.46
2018-12-21T14:32:42.499Z,10.45
2018-12-21T14:35:14.772Z,10.37
2018-12-21T14:37:47.035Z,10.48
2018-12-21T14:40:19.402Z,10.47
2018-12-21T14:42:51.649Z,10.49
2018-12-21T14:45:24.077Z,10.43
2018-12-21T14:47:56.364Z,10.45
2018-12-21T14:50:28.651Z,10.40
2018-12-21T14:53:00.933Z,10.38
2018-12-21T14:55:37.529Z,10.44
2018-12-21T14:58:07.739Z,10.48
2018-12-21T15:00:40.074Z,10.38
2018-12-21T15:03:12.342Z,10.41
2018-12-21T15:05:44.731Z,10.44
2018-12-21T15:08:17.005Z,10.41
2018-12-21T15:10:49.284Z,10.43
2018-12-21T15:13:21.579Z,10.41
2018-12-21T15:15:53.905Z,10.47
2018-12-21T15:18:26.321Z,10.49
2018-12-21T15:20:58.672Z,10.46
2018-12-21T15:23:30.953Z,10.53
2018-12-21T15:26:03.298Z,10.50
2018-12-21T15:28:35.572Z,10.56
2018-12-21T15:31:07.857Z,10.57
2018-12-21T15:33:40.231Z,10.50
2018-12-21T15:36:12.521Z,10.57
2018-12-21T15:38:44.777Z,10.57
2018-12-21T15:41:17.068Z,10.57
2018-12-21T15:43:49.356Z,10.63
2018-12-21T15:46:21.673Z,10.65
2018-12-21T15:48:54.052Z,10.64
2018-12-21T15:51:26.369Z,10.65
2018-12-21T15:53:58.667Z,10.56
2018-12-21T15:56:30.944Z,10.57
2018-12-21T15:59:03.252Z,10.60
2018-12-21T16:01:37.038Z,10.58
2018-12-21T16:04:09.749Z,10.63
2018-12-21T16:06:42.162Z,10.48
2018-12-21T16:09:14.527Z,10.54
2018-12-21T16:11:46.818Z,10.54
2018-12-21T16:14:19.119Z,10.55
2018-12-21T16:16:51.409Z,10.53
2018-12-21T16:19:23.704Z,10.60
2018-12-21T16:21:56.032Z,10.64
2018-12-21T16:24:28.390Z,10.69
2018-12-21T16:27:00.686Z,10.71
2018-12-21T16:29:33.012Z,10.70
2018-12-21T16:32:05.289Z,10.74
2018-12-21T16:34:37.641Z,10.81
2018-12-21T16:37:10.060Z,10.80
2018-12-21T16:39:42.362Z,10.87
2018-12-21T16:42:14.673Z,10.87
2018-12-21T16:44:47.004Z,10.85
2018-12-21T16:47:19.355Z,10.85
2018-12-21T16:49:51.681Z,10.85
2018-12-21T16:52:24.010Z,10.95
2018-12-21T16:54:56.354Z,10.91
2018-12-21T16:57:28.690Z,11.00
2018-12-21T17:00:01.076Z,11.01
2018-12-21T17:02:33.386Z,11.03
2018-12-21T17:05:05.880Z,11.07
2018-12-21T17:07:38.215Z,11.04
2018-12-21T17:10:18.888Z,11.05
2018-12-21T17:12:51.412Z,11.09
2018-12-21T17:15:23.701Z,11.12
2018-12-21T17:17:55.993Z,11.14
2018-12-21T17:20:28.297Z,11.16
2018-12-21T17:23:00.865Z,11.15
2018-12-21T17:25:33.539Z,11.22
2018-12-21T17:28:05.808Z,11.24
2018-12-21T17:30:38.091Z,11.25
2018-12-21T17:33:10.426Z,11.27
2018-12-21T17:35:42.700Z,11.31
2018-12-21T17:38:14.974Z,11.32
2018-12-21T17:40:47.808Z,11.32
2018-12-21T17:43:20.120Z,11.35
2018-12-21T17:45:52.434Z,11.36
2018-12-21T17:48:24.737Z,11.36
2018-12-21T17:50:57.046Z,11.37
2018-12-21T17:53:29.375Z,11.45
2018-12-21T17:56:01.706Z,11.45
2018-12-21T17:58:34.023Z,11.44
2018-12-21T18:01:06.840Z,11.51
2018-12-21T18:04:49.082Z,11.51
2018-12-21T18:07:21.393Z,11.44
2018-12-21T18:09:53.654Z,11.44
2018-12-21T18:12:26.028Z,11.46
2018-12-21T18:14:58.332Z,11.54
2018-12-21T18:17:30.601Z,11.56
2018-12-21T18:20:03.601Z,11.48
2018-12-21T18:22:35.889Z,11.52
2018-12-21T18:25:14.787Z,11.53
2018-12-21T18:27:50.003Z,11.49
2018-12-21T18:30:29.387Z,11.50
2018-12-21T18:33:10.451Z,11.55
2018-12-21T18:35:37.832Z,11.49
2018-12-21T18:38:14.551Z,11.47
2018-12-21T18:40:47.509Z,11.62
2018-12-21T18:43:19.818Z,11.54
2018-12-21T18:45:52.165Z,11.60
2018-12-21T18:48:24.456Z,11.60
2018-12-21T18:50:56.832Z,11.59
2018-12-21T18:53:29.144Z,11.67
2018-12-21T18:56:02.175Z,11.65
2018-12-21T18:58:34.466Z,11.54
2018-12-21T19:01:06.804Z,11.59
2018-12-21T19:03:39.278Z,11.57
2018-12-21T19:06:11.894Z,11.55
2018-12-21T19:08:44.593Z,11.56
2018-12-21T19:11:16.992Z,11.51
2018-12-21T19:13:49.293Z,11.51
2018-12-21T19:16:21.625Z,11.49
2018-12-21T19:18:53.931Z,11.43
2018-12-21T19:21:26.273Z,11.42
2018-12-21T19:23:58.718Z,11.39
2018-12-21T19:26:31.293Z,11.40
2018-12-21T19:29:03.814Z,11.34
2018-12-21T19:31:36.224Z,11.27
2018-12-21T19:34:08.545Z,11.34
2018-12-21T19:36:40.953Z,11.35
2018-12-21T19:39:13.573Z,11.28
2018-12-21T19:41:45.958Z,11.22
2018-12-21T19:44:18.281Z,11.26
2018-12-21T19:46:50.665Z,11.29
2018-12-21T19:49:23.100Z,11.27
2018-12-21T19:51:55.501Z,11.28
2018-12-21T19:54:27.792Z,11.16
2018-12-21T19:57:05.285Z,11.17
2018-12-21T19:59:37.661Z,11.25
2018-12-21T20:02:10.055Z,11.31
2018-12-21T20:04:42.442Z,11.18
2018-12-21T20:07:14.725Z,11.16
2018-12-21T20:09:47.060Z,11.23
2018-12-21T20:12:19.435Z,11.30
2018-12-21T20:14:51.792Z,11.23
2018-12-21T20:17:24.069Z,11.21
2018-12-21T20:19:56.350Z,11.22
2018-12-21T20:22:28.680Z,11.21
2018-12-21T20:25:00.984Z,11.21
2018-12-21T20:27:33.339Z,11.26
2018-12-21T20:30:08.004Z,11.27
2018-12-21T20:32:40.807Z,11.28
2018-12-21T20:35:13.157Z,11.31
2018-12-21T20:37:45.511Z,11.38
2018-12-21T20:40:17.920Z,11.37
2018-12-21T20:42:50.228Z,11.39
2018-12-21T20:45:22.634Z,11.38
2018-12-21T20:47:54.975Z,11.39
2018-12-21T20:50:27.302Z,11.41
2018-12-21T20:52:59.601Z,11.42
2018-12-21T20:55:31.944Z,11.41
2018-12-21T20:58:14.202Z,11.42
2018-12-21T21:00:46.624Z,11.47
2018-12-21T21:03:18.974Z,11.48
2018-12-21T21:05:51.294Z,11.48
2018-12-21T21:08:23.628Z,11.46
2018-12-21T21:10:55.956Z,11.54
2018-12-21T21:13:28.267Z,11.57
2018-12-21T21:16:00.608Z,11.64
2018-12-21T21:18:33.794Z,11.69
2018-12-21T21:21:06.148Z,11.69
2018-12-21T21:23:38.952Z,11.71
2018-12-21T21:26:11.292Z,11.68
2018-12-21T21:28:43.572Z,11.68
2018-12-21T21:31:15.939Z,11.66
2018-12-21T21:33:48.272Z,11.66
2018-12-21T21:36:20.590Z,11.64
2018-12-21T21:38:52.906Z,11.56
2018-12-21T21:41:25.224Z,11.58
2018-12-21T21:43:57.525Z,11.46
2018-12-21T21:46:30.115Z,11.52
2018-12-21T21:49:02.430Z,11.57
2018-12-21T21:51:34.773Z,11.55
2018-12-21T21:54:07.111Z,11.53
2018-12-21T21:56:39.865Z,11.54
2018-12-21T21:59:12.360Z,11.50
2018-12-21T22:01:44.756Z,11.58
2018-12-21T22:04:17.245Z,11.57
2018-12-21T22:06:49.808Z,11.65
2018-12-21T22:09:22.144Z,11.60
2018-12-21T22:11:54.509Z,11.63
2018-12-21T22:14:26.903Z,11.54
2018-12-21T22:16:59.279Z,11.52
2018-12-21T22:19:31.766Z,11.49
2018-12-21T22:22:04.136Z,11.50
2018-12-21T22:24:36.499Z,11.43
2018-12-21T22:27:08.780Z,11.43
2018-12-21T22:29:41.096Z,11.42
2018-12-21T22:32:13.400Z,11.45
2018-12-21T22:34:45.722Z,11.40
2018-12-21T22:37:18.039Z,11.46
2018-12-21T22:39:50.374Z,11.50
2018-12-21T22:42:22.678Z,11.50
2018-12-21T22:44:55.080Z,11.48
2018-12-21T22:47:27.387Z,11.50
2018-12-21T22:49:59.708Z,11.54
2018-12-21T22:52:32.029Z,11.48
2018-12-21T22:55:05.126Z,11.42
2018-12-21T22:57:37.413Z,11.35
2018-12-21T23:00:16.620Z,11.17
2018-12-21T23:02:48.968Z,11.11
2018-12-21T23:05:21.258Z,11.04
2018-12-21T23:07:53.523Z,10.95
2018-12-21T23:10:25.820Z,11.10
2018-12-21T23:12:58.131Z,11.11
2018-12-21T23:15:30.501Z,11.11
2018-12-21T23:18:02.768Z,11.01
2018-12-21T23:20:35.065Z,10.94
2018-12-21T23:23:07.355Z,11.05
2018-12-21T23:25:39.654Z,11.00
2018-12-21T23:28:11.879Z,10.96
2018-12-21T23:30:44.171Z,11.04
2018-12-21T23:33:16.402Z,11.05
2018-12-21T23:35:48.704Z,11.05
2018-12-21T23:38:20.940Z,11.18
2018-12-21T23:40:53.242Z,11.26
2018-12-21T23:43:25.484Z,11.28
2018-12-21T23:45:57.788Z,11.25
2018-12-21T23:48:30.060Z,11.15
2018-12-21T23:51:02.373Z,11.11
2018-12-21T23:53:34.625Z,10.93
2018-12-21T23:56:11.937Z,10.89
2018-12-21T23:58:41.160Z,10.89
